sensor_id;sensor_type;location;lat;lon;timestamp;P1;durP1;ratioP1;P2;durP2;ratioP2
12768;SDS011;6448;48.916;8.990;2023-09-07T00:00:54;2.00;;;1.90;;
12768;SDS011;6448;48.916;8.990;2023-09-07T00:01:55;1.95;;;1.85;;
12768;SDS011;6448;48.916;8.990;2023-09-07T00:02:56;2.30;;;2.10;;
12768;SDS011;6448;48.916;8.990;2023-09-07T00:03:59;2.35;;;2.15;;
12768;SDS011;6448;48.916;8.990;2023-09-07T00:05:00;2.20;;;2.00;;
12768;SDS011;6448;48.916;8.990;2023-09-07T00:06:01;2.33;;;2.10;;
12768;SDS011;6448;48.916;8.990;2023-09-07T00:07:03;2.33;;;2.13;;
12768;SDS011;6448;48.916;8.990;2023-09-07T00:08:04;2.42;;;2.08;;
12768;SDS011;6448;48.916;8.990;2023-09-07T00:09:06;2.40;;;2.20;;
12768;SDS011;6448;48.916;8.990;2023-09-07T00:10:09;2.40;;;2.20;;
12768;SDS011;6448;48.916;8.990;2023-09-07T00:11:11;2.30;;;2.10;;
12768;SDS011;6448;48.916;8.990;2023-09-07T00:12:12;2.50;;;2.30;;
12768;SDS011;6448;48.916;8.990;2023-09-07T00:13:14;2.22;;;2.13;;
12768;SDS011;6448;48.916;8.990;2023-09-07T00:14:14;2.33;;;2.20;;
12768;SDS011;6448;48.916;8.990;2023-09-07T00:15:16;2.50;;;2.30;;
12768;SDS011;6448;48.916;8.990;2023-09-07T00:16:19;2.13;;;2.03;;
12768;SDS011;6448;48.916;8.990;2023-09-07T00:17:21;2.60;;;2.40;;
12768;SDS011;6448;48.916;8.990;2023-09-07T00:18:22;2.40;;;2.20;;
12768;SDS011;6448;48.916;8.990;2023-09-07T00:19:24;2.33;;;2.13;;
12768;SDS011;6448;48.916;8.990;2023-09-07T00:20:24;2.47;;;2.30;;
12768;SDS011;6448;48.916;8.990;2023-09-07T00:21:26;2.20;;;2.10;;
12768;SDS011;6448;48.916;8.990;2023-09-07T00:22:27;2.40;;;2.20;;
12768;SDS011;6448;48.916;8.990;2023-09-07T00:23:28;2.40;;;2.20;;
12768;SDS011;6448;48.916;8.990;2023-09-07T00:24:30;2.33;;;2.13;;
12768;SDS011;6448;48.916;8.990;2023-09-07T00:25:32;2.17;;;2.03;;
12768;SDS011;6448;48.916;8.990;2023-09-07T00:26:34;2.50;;;2.30;;
12768;SDS011;6448;48.916;8.990;2023-09-07T00:27:35;2.30;;;2.10;;
12768;SDS011;6448;48.916;8.990;2023-09-07T00:28:37;2.40;;;2.20;;
12768;SDS011;6448;48.916;8.990;2023-09-07T00:29:38;2.22;;;2.13;;
12768;SDS011;6448;48.916;8.990;2023-09-07T00:30:38;2.95;;;2.20;;
12768;SDS011;6448;48.916;8.990;2023-09-07T00:31:40;2.23;;;2.07;;
12768;SDS011;6448;48.916;8.990;2023-09-07T00:32:41;2.25;;;2.05;;
12768;SDS011;6448;48.916;8.990;2023-09-07T00:33:43;2.00;;;1.90;;
12768;SDS011;6448;48.916;8.990;2023-09-07T00:34:44;2.23;;;2.03;;
12768;SDS011;6448;48.916;8.990;2023-09-07T00:35:46;2.28;;;2.08;;
12768;SDS011;6448;48.916;8.990;2023-09-07T00:36:47;1.85;;;1.75;;
12768;SDS011;6448;48.916;8.990;2023-09-07T00:37:49;2.10;;;1.92;;
12768;SDS011;6448;48.916;8.990;2023-09-07T00:38:49;2.43;;;2.10;;
12768;SDS011;6448;48.916;8.990;2023-09-07T00:39:51;2.20;;;2.00;;
12768;SDS011;6448;48.916;8.990;2023-09-07T00:40:54;2.22;;;2.03;;
12768;SDS011;6448;48.916;8.990;2023-09-07T00:41:56;2.10;;;1.90;;
12768;SDS011;6448;48.916;8.990;2023-09-07T00:42:56;2.28;;;2.08;;
12768;SDS011;6448;48.916;8.990;2023-09-07T00:43:59;2.30;;;2.10;;
12768;SDS011;6448;48.916;8.990;2023-09-07T00:45:00;2.30;;;2.10;;
12768;SDS011;6448;48.916;8.990;2023-09-07T00:46:02;2.40;;;2.05;;
12768;SDS011;6448;48.916;8.990;2023-09-07T00:47:03;2.00;;;1.90;;
12768;SDS011;6448;48.916;8.990;2023-09-07T00:48:06;2.27;;;1.83;;
12768;SDS011;6448;48.916;8.990;2023-09-07T00:49:07;2.20;;;2.00;;
12768;SDS011;6448;48.916;8.990;2023-09-07T00:50:09;1.90;;;1.80;;
12768;SDS011;6448;48.916;8.990;2023-09-07T00:51:13;2.20;;;2.00;;
12768;SDS011;6448;48.916;8.990;2023-09-07T00:52:15;2.17;;;1.98;;
12768;SDS011;6448;48.916;8.990;2023-09-07T00:53:17;2.20;;;1.90;;
12768;SDS011;6448;48.916;8.990;2023-09-07T00:54:19;2.10;;;2.00;;
12768;SDS011;6448;48.916;8.990;2023-09-07T00:55:21;2.75;;;2.30;;
12768;SDS011;6448;48.916;8.990;2023-09-07T00:56:24;2.00;;;1.90;;
12768;SDS011;6448;48.916;8.990;2023-09-07T00:57:27;1.90;;;1.80;;
12768;SDS011;6448;48.916;8.990;2023-09-07T00:58:28;2.20;;;2.00;;
12768;SDS011;6448;48.916;8.990;2023-09-07T00:59:31;2.47;;;1.98;;
12768;SDS011;6448;48.916;8.990;2023-09-07T01:00:32;2.30;;;2.10;;
12768;SDS011;6448;48.916;8.990;2023-09-07T01:01:35;2.10;;;2.00;;
12768;SDS011;6448;48.916;8.990;2023-09-07T01:02:36;2.20;;;2.00;;
12768;SDS011;6448;48.916;8.990;2023-09-07T01:03:38;2.10;;;2.00;;
12768;SDS011;6448;48.916;8.990;2023-09-07T01:04:39;2.10;;;1.90;;
12768;SDS011;6448;48.916;8.990;2023-09-07T01:05:44;1.83;;;1.73;;
12768;SDS011;6448;48.916;8.990;2023-09-07T01:06:51;2.10;;;2.00;;
12768;SDS011;6448;48.916;8.990;2023-09-07T01:07:57;2.05;;;1.95;;
12768;SDS011;6448;48.916;8.990;2023-09-07T01:09:16;2.10;;;1.95;;
12768;SDS011;6448;48.916;8.990;2023-09-07T01:10:22;2.00;;;1.90;;
12768;SDS011;6448;48.916;8.990;2023-09-07T01:11:25;2.00;;;1.90;;
12768;SDS011;6448;48.916;8.990;2023-09-07T01:12:26;2.17;;;2.08;;
12768;SDS011;6448;48.916;8.990;2023-09-07T01:13:28;2.35;;;2.15;;
12768;SDS011;6448;48.916;8.990;2023-09-07T01:14:29;2.20;;;2.00;;
12768;SDS011;6448;48.916;8.990;2023-09-07T01:15:31;2.38;;;2.17;;
12768;SDS011;6448;48.916;8.990;2023-09-07T01:16:32;2.15;;;2.05;;
12768;SDS011;6448;48.916;8.990;2023-09-07T01:17:36;2.38;;;2.17;;
12768;SDS011;6448;48.916;8.990;2023-09-07T01:18:38;2.03;;;1.90;;
12768;SDS011;6448;48.916;8.990;2023-09-07T01:19:42;2.28;;;2.10;;
12768;SDS011;6448;48.916;8.990;2023-09-07T01:20:45;2.15;;;2.05;;
12768;SDS011;6448;48.916;8.990;2023-09-07T01:21:49;2.30;;;2.20;;
12768;SDS011;6448;48.916;8.990;2023-09-07T01:22:52;2.50;;;2.30;;
12768;SDS011;6448;48.916;8.990;2023-09-07T01:23:55;2.15;;;2.05;;
12768;SDS011;6448;48.916;8.990;2023-09-07T01:24:58;2.40;;;2.08;;
12768;SDS011;6448;48.916;8.990;2023-09-07T01:26:01;2.10;;;1.90;;
12768;SDS011;6448;48.916;8.990;2023-09-07T01:27:04;2.30;;;2.10;;
12768;SDS011;6448;48.916;8.990;2023-09-07T01:28:07;2.40;;;2.20;;
12768;SDS011;6448;48.916;8.990;2023-09-07T01:29:10;2.10;;;1.98;;
12768;SDS011;6448;48.916;8.990;2023-09-07T01:30:11;2.20;;;2.00;;
12768;SDS011;6448;48.916;8.990;2023-09-07T01:31:14;2.20;;;2.00;;
12768;SDS011;6448;48.916;8.990;2023-09-07T01:32:16;2.00;;;1.90;;
12768;SDS011;6448;48.916;8.990;2023-09-07T01:33:17;2.20;;;2.00;;
12768;SDS011;6448;48.916;8.990;2023-09-07T01:34:18;2.20;;;2.00;;
12768;SDS011;6448;48.916;8.990;2023-09-07T01:35:20;2.00;;;1.90;;
12768;SDS011;6448;48.916;8.990;2023-09-07T01:36:22;2.10;;;1.90;;
12768;SDS011;6448;48.916;8.990;2023-09-07T01:37:26;2.22;;;2.03;;
12768;SDS011;6448;48.916;8.990;2023-09-07T01:38:27;2.50;;;2.30;;
12768;SDS011;6448;48.916;8.990;2023-09-07T01:39:29;2.15;;;1.95;;
12768;SDS011;6448;48.916;8.990;2023-09-07T01:40:30;2.13;;;2.03;;
12768;SDS011;6448;48.916;8.990;2023-09-07T01:41:32;2.00;;;1.90;;
12768;SDS011;6448;48.916;8.990;2023-09-07T01:42:34;2.13;;;1.90;;
12768;SDS011;6448;48.916;8.990;2023-09-07T01:43:37;2.00;;;1.90;;
12768;SDS011;6448;48.916;8.990;2023-09-07T01:44:38;2.20;;;2.00;;
12768;SDS011;6448;48.916;8.990;2023-09-07T01:45:40;2.10;;;1.90;;
12768;SDS011;6448;48.916;8.990;2023-09-07T01:46:41;1.90;;;1.80;;
12768;SDS011;6448;48.916;8.990;2023-09-07T01:47:43;2.10;;;2.00;;
12768;SDS011;6448;48.916;8.990;2023-09-07T01:48:43;2.88;;;2.20;;
12768;SDS011;6448;48.916;8.990;2023-09-07T01:49:44;2.20;;;2.00;;
12768;SDS011;6448;48.916;8.990;2023-09-07T01:50:46;1.90;;;1.80;;
12768;SDS011;6448;48.916;8.990;2023-09-07T01:51:50;2.25;;;2.05;;
12768;SDS011;6448;48.916;8.990;2023-09-07T01:52:54;2.15;;;2.05;;
12768;SDS011;6448;48.916;8.990;2023-09-07T01:53:55;2.10;;;1.98;;
12768;SDS011;6448;48.916;8.990;2023-09-07T01:54:57;2.00;;;1.80;;
12768;SDS011;6448;48.916;8.990;2023-09-07T01:55:57;2.45;;;2.17;;
12768;SDS011;6448;48.916;8.990;2023-09-07T01:56:59;2.05;;;1.95;;
12768;SDS011;6448;48.916;8.990;2023-09-07T01:58:00;2.85;;;1.80;;
12768;SDS011;6448;48.916;8.990;2023-09-07T01:59:02;2.00;;;1.90;;
12768;SDS011;6448;48.916;8.990;2023-09-07T02:00:03;1.92;;;1.83;;
12768;SDS011;6448;48.916;8.990;2023-09-07T02:01:20;1.95;;;1.85;;
12768;SDS011;6448;48.916;8.990;2023-09-07T02:02:21;1.90;;;1.80;;
12768;SDS011;6448;48.916;8.990;2023-09-07T02:03:23;2.15;;;2.00;;
12768;SDS011;6448;48.916;8.990;2023-09-07T02:04:25;2.05;;;1.95;;
12768;SDS011;6448;48.916;8.990;2023-09-07T02:05:27;2.22;;;1.80;;
12768;SDS011;6448;48.916;8.990;2023-09-07T02:06:27;1.85;;;1.75;;
12768;SDS011;6448;48.916;8.990;2023-09-07T02:07:29;2.10;;;2.00;;
12768;SDS011;6448;48.916;8.990;2023-09-07T02:08:31;2.10;;;1.90;;
12768;SDS011;6448;48.916;8.990;2023-09-07T02:09:33;2.00;;;1.90;;
12768;SDS011;6448;48.916;8.990;2023-09-07T02:10:34;1.98;;;1.73;;
12768;SDS011;6448;48.916;8.990;2023-09-07T02:11:36;2.00;;;1.80;;
12768;SDS011;6448;48.916;8.990;2023-09-07T02:12:36;1.90;;;1.80;;
12768;SDS011;6448;48.916;8.990;2023-09-07T02:13:37;2.20;;;1.80;;
12768;SDS011;6448;48.916;8.990;2023-09-07T02:14:42;1.80;;;1.70;;
12768;SDS011;6448;48.916;8.990;2023-09-07T02:15:43;1.98;;;1.80;;
12768;SDS011;6448;48.916;8.990;2023-09-07T02:16:45;1.85;;;1.75;;
12768;SDS011;6448;48.916;8.990;2023-09-07T02:17:46;1.90;;;1.80;;
12768;SDS011;6448;48.916;8.990;2023-09-07T02:18:50;1.83;;;1.73;;
12768;SDS011;6448;48.916;8.990;2023-09-07T02:19:51;1.88;;;1.77;;
12768;SDS011;6448;48.916;8.990;2023-09-07T02:20:52;1.95;;;1.80;;
12768;SDS011;6448;48.916;8.990;2023-09-07T02:21:53;2.03;;;1.83;;
12768;SDS011;6448;48.916;8.990;2023-09-07T02:22:55;1.85;;;1.75;;
12768;SDS011;6448;48.916;8.990;2023-09-07T02:23:57;2.00;;;1.90;;
12768;SDS011;6448;48.916;8.990;2023-09-07T02:24:59;2.15;;;1.95;;
12768;SDS011;6448;48.916;8.990;2023-09-07T02:26:00;2.40;;;2.20;;
12768;SDS011;6448;48.916;8.990;2023-09-07T02:27:01;2.05;;;1.95;;
12768;SDS011;6448;48.916;8.990;2023-09-07T02:28:03;2.00;;;1.80;;
12768;SDS011;6448;48.916;8.990;2023-09-07T02:29:04;2.30;;;2.10;;
12768;SDS011;6448;48.916;8.990;2023-09-07T02:30:07;2.10;;;2.00;;
12768;SDS011;6448;48.916;8.990;2023-09-07T02:31:09;2.22;;;2.03;;
12768;SDS011;6448;48.916;8.990;2023-09-07T02:32:11;2.55;;;2.20;;
12768;SDS011;6448;48.916;8.990;2023-09-07T02:33:13;3.10;;;2.10;;
12768;SDS011;6448;48.916;8.990;2023-09-07T02:34:14;2.22;;;2.03;;
12768;SDS011;6448;48.916;8.990;2023-09-07T02:35:15;2.10;;;2.00;;
12768;SDS011;6448;48.916;8.990;2023-09-07T02:36:16;2.10;;;2.00;;
12768;SDS011;6448;48.916;8.990;2023-09-07T02:37:18;1.70;;;1.60;;
12768;SDS011;6448;48.916;8.990;2023-09-07T02:38:19;2.10;;;2.00;;
12768;SDS011;6448;48.916;8.990;2023-09-07T02:39:22;2.20;;;2.10;;
12768;SDS011;6448;48.916;8.990;2023-09-07T02:40:26;2.13;;;2.03;;
12768;SDS011;6448;48.916;8.990;2023-09-07T02:41:28;2.25;;;2.05;;
12768;SDS011;6448;48.916;8.990;2023-09-07T02:42:28;2.47;;;2.27;;
12768;SDS011;6448;48.916;8.990;2023-09-07T02:43:30;2.20;;;2.05;;
12768;SDS011;6448;48.916;8.990;2023-09-07T02:44:32;2.30;;;2.10;;
12768;SDS011;6448;48.916;8.990;2023-09-07T02:45:34;2.20;;;2.10;;
12768;SDS011;6448;48.916;8.990;2023-09-07T02:46:35;2.55;;;2.35;;
12768;SDS011;6448;48.916;8.990;2023-09-07T02:47:36;1.95;;;1.85;;
12768;SDS011;6448;48.916;8.990;2023-09-07T02:48:38;2.10;;;2.00;;
12768;SDS011;6448;48.916;8.990;2023-09-07T02:49:39;2.20;;;2.00;;
12768;SDS011;6448;48.916;8.990;2023-09-07T02:50:42;2.10;;;2.00;;
12768;SDS011;6448;48.916;8.990;2023-09-07T02:51:45;2.22;;;2.03;;
12768;SDS011;6448;48.916;8.990;2023-09-07T02:52:47;1.98;;;1.88;;
12768;SDS011;6448;48.916;8.990;2023-09-07T02:53:48;2.95;;;2.33;;
12768;SDS011;6448;48.916;8.990;2023-09-07T02:54:51;2.30;;;2.10;;
12768;SDS011;6448;48.916;8.990;2023-09-07T02:55:52;2.10;;;2.00;;
12768;SDS011;6448;48.916;8.990;2023-09-07T02:56:53;2.13;;;2.00;;
12768;SDS011;6448;48.916;8.990;2023-09-07T02:57:55;2.08;;;1.98;;
12768;SDS011;6448;48.916;8.990;2023-09-07T02:58:58;2.20;;;2.05;;
12768;SDS011;6448;48.916;8.990;2023-09-07T02:59:59;2.33;;;2.17;;
12768;SDS011;6448;48.916;8.990;2023-09-07T03:01:09;2.33;;;2.13;;
12768;SDS011;6448;48.916;8.990;2023-09-07T03:02:09;2.08;;;1.98;;
12768;SDS011;6448;48.916;8.990;2023-09-07T03:03:12;2.27;;;2.10;;
12768;SDS011;6448;48.916;8.990;2023-09-07T03:04:14;2.40;;;2.20;;
12768;SDS011;6448;48.916;8.990;2023-09-07T03:05:16;2.30;;;2.10;;
12768;SDS011;6448;48.916;8.990;2023-09-07T03:06:18;2.35;;;2.15;;
12768;SDS011;6448;48.916;8.990;2023-09-07T03:07:24;2.53;;;2.33;;
12768;SDS011;6448;48.916;8.990;2023-09-07T03:08:24;2.37;;;2.17;;
12768;SDS011;6448;48.916;8.990;2023-09-07T03:09:26;2.60;;;2.40;;
12768;SDS011;6448;48.916;8.990;2023-09-07T03:10:28;2.50;;;2.30;;
12768;SDS011;6448;48.916;8.990;2023-09-07T03:11:29;2.40;;;2.20;;
12768;SDS011;6448;48.916;8.990;2023-09-07T03:12:34;2.40;;;2.20;;
12768;SDS011;6448;48.916;8.990;2023-09-07T03:13:36;2.35;;;2.15;;
12768;SDS011;6448;48.916;8.990;2023-09-07T03:14:37;2.17;;;2.08;;
12768;SDS011;6448;48.916;8.990;2023-09-07T03:15:39;2.30;;;2.10;;
12768;SDS011;6448;48.916;8.990;2023-09-07T03:16:44;2.60;;;2.40;;
12768;SDS011;6448;48.916;8.990;2023-09-07T03:17:48;2.60;;;2.40;;
12768;SDS011;6448;48.916;8.990;2023-09-07T03:18:49;2.70;;;2.35;;
12768;SDS011;6448;48.916;8.990;2023-09-07T03:19:51;2.67;;;2.47;;
12768;SDS011;6448;48.916;8.990;2023-09-07T03:20:54;2.30;;;2.10;;
12768;SDS011;6448;48.916;8.990;2023-09-07T03:21:57;2.30;;;2.10;;
12768;SDS011;6448;48.916;8.990;2023-09-07T03:23:00;2.60;;;2.40;;
12768;SDS011;6448;48.916;8.990;2023-09-07T03:24:02;2.20;;;2.00;;
12768;SDS011;6448;48.916;8.990;2023-09-07T03:25:05;2.28;;;2.10;;
12768;SDS011;6448;48.916;8.990;2023-09-07T03:26:08;2.10;;;2.00;;
12768;SDS011;6448;48.916;8.990;2023-09-07T03:27:10;2.13;;;2.03;;
12768;SDS011;6448;48.916;8.990;2023-09-07T03:28:11;2.40;;;2.10;;
12768;SDS011;6448;48.916;8.990;2023-09-07T03:29:12;2.40;;;2.20;;
12768;SDS011;6448;48.916;8.990;2023-09-07T03:30:14;2.40;;;2.20;;
12768;SDS011;6448;48.916;8.990;2023-09-07T03:31:15;2.15;;;2.05;;
12768;SDS011;6448;48.916;8.990;2023-09-07T03:32:17;2.13;;;2.00;;
12768;SDS011;6448;48.916;8.990;2023-09-07T03:33:17;2.37;;;2.20;;
12768;SDS011;6448;48.916;8.990;2023-09-07T03:34:19;2.50;;;2.30;;
12768;SDS011;6448;48.916;8.990;2023-09-07T03:35:21;2.53;;;2.33;;
12768;SDS011;6448;48.916;8.990;2023-09-07T03:36:22;2.50;;;2.30;;
12768;SDS011;6448;48.916;8.990;2023-09-07T03:37:24;2.25;;;2.15;;
12768;SDS011;6448;48.916;8.990;2023-09-07T03:38:25;2.30;;;2.10;;
12768;SDS011;6448;48.916;8.990;2023-09-07T03:39:27;2.25;;;2.15;;
12768;SDS011;6448;48.916;8.990;2023-09-07T03:40:27;2.10;;;2.00;;
12768;SDS011;6448;48.916;8.990;2023-09-07T03:41:31;2.40;;;2.20;;
12768;SDS011;6448;48.916;8.990;2023-09-07T03:42:33;2.45;;;2.25;;
12768;SDS011;6448;48.916;8.990;2023-09-07T03:43:35;2.40;;;2.20;;
12768;SDS011;6448;48.916;8.990;2023-09-07T03:44:36;2.30;;;2.10;;
12768;SDS011;6448;48.916;8.990;2023-09-07T03:45:39;2.33;;;2.13;;
12768;SDS011;6448;48.916;8.990;2023-09-07T03:46:40;2.40;;;2.10;;
12768;SDS011;6448;48.916;8.990;2023-09-07T03:47:42;2.50;;;2.30;;
12768;SDS011;6448;48.916;8.990;2023-09-07T03:48:46;2.55;;;2.40;;
12768;SDS011;6448;48.916;8.990;2023-09-07T03:49:48;2.33;;;2.13;;
12768;SDS011;6448;48.916;8.990;2023-09-07T03:50:48;2.38;;;2.17;;
12768;SDS011;6448;48.916;8.990;2023-09-07T03:51:50;2.30;;;2.10;;
12768;SDS011;6448;48.916;8.990;2023-09-07T03:52:51;2.58;;;2.38;;
12768;SDS011;6448;48.916;8.990;2023-09-07T03:53:53;2.50;;;2.30;;
12768;SDS011;6448;48.916;8.990;2023-09-07T03:54:54;2.70;;;2.17;;
12768;SDS011;6448;48.916;8.990;2023-09-07T03:55:56;2.33;;;2.20;;
12768;SDS011;6448;48.916;8.990;2023-09-07T03:56:58;2.40;;;2.17;;
12768;SDS011;6448;48.916;8.990;2023-09-07T03:58:00;2.50;;;2.30;;
12768;SDS011;6448;48.916;8.990;2023-09-07T03:59:01;2.47;;;2.27;;
12768;SDS011;6448;48.916;8.990;2023-09-07T04:00:03;2.40;;;2.20;;
12768;SDS011;6448;48.916;8.990;2023-09-07T04:01:13;2.55;;;2.35;;
12768;SDS011;6448;48.916;8.990;2023-09-07T04:02:15;2.40;;;2.20;;
12768;SDS011;6448;48.916;8.990;2023-09-07T04:03:17;2.35;;;2.15;;
12768;SDS011;6448;48.916;8.990;2023-09-07T04:04:18;2.53;;;2.33;;
12768;SDS011;6448;48.916;8.990;2023-09-07T04:05:21;2.40;;;2.20;;
12768;SDS011;6448;48.916;8.990;2023-09-07T04:06:23;2.47;;;2.28;;
12768;SDS011;6448;48.916;8.990;2023-09-07T04:07:24;2.40;;;2.20;;
12768;SDS011;6448;48.916;8.990;2023-09-07T04:08:25;2.40;;;2.20;;
12768;SDS011;6448;48.916;8.990;2023-09-07T04:09:26;2.58;;;2.38;;
12768;SDS011;6448;48.916;8.990;2023-09-07T04:10:28;2.22;;;2.10;;
12768;SDS011;6448;48.916;8.990;2023-09-07T04:11:29;2.58;;;2.38;;
12768;SDS011;6448;48.916;8.990;2023-09-07T04:12:32;2.15;;;1.95;;
12768;SDS011;6448;48.916;8.990;2023-09-07T04:13:33;2.40;;;2.20;;
12768;SDS011;6448;48.916;8.990;2023-09-07T04:14:36;2.35;;;2.15;;
12768;SDS011;6448;48.916;8.990;2023-09-07T04:15:41;2.37;;;2.27;;
12768;SDS011;6448;48.916;8.990;2023-09-07T04:16:44;2.30;;;2.20;;
12768;SDS011;6448;48.916;8.990;2023-09-07T04:17:45;2.65;;;2.45;;
12768;SDS011;6448;48.916;8.990;2023-09-07T04:18:47;2.10;;;2.00;;
12768;SDS011;6448;48.916;8.990;2023-09-07T04:19:48;2.35;;;2.15;;
12768;SDS011;6448;48.916;8.990;2023-09-07T04:20:49;2.67;;;2.47;;
12768;SDS011;6448;48.916;8.990;2023-09-07T04:21:50;2.40;;;2.20;;
12768;SDS011;6448;48.916;8.990;2023-09-07T04:22:51;2.53;;;2.33;;
12768;SDS011;6448;48.916;8.990;2023-09-07T04:23:53;2.47;;;2.30;;
12768;SDS011;6448;48.916;8.990;2023-09-07T04:24:54;2.58;;;2.38;;
12768;SDS011;6448;48.916;8.990;2023-09-07T04:26:03;2.50;;;2.30;;
12768;SDS011;6448;48.916;8.990;2023-09-07T04:27:04;2.58;;;2.38;;
12768;SDS011;6448;48.916;8.990;2023-09-07T04:28:09;2.60;;;2.40;;
12768;SDS011;6448;48.916;8.990;2023-09-07T04:29:10;2.50;;;2.30;;
12768;SDS011;6448;48.916;8.990;2023-09-07T04:30:13;2.70;;;2.50;;
12768;SDS011;6448;48.916;8.990;2023-09-07T04:31:14;2.60;;;2.40;;
12768;SDS011;6448;48.916;8.990;2023-09-07T04:32:16;2.70;;;2.50;;
12768;SDS011;6448;48.916;8.990;2023-09-07T04:33:16;2.50;;;2.30;;
12768;SDS011;6448;48.916;8.990;2023-09-07T04:34:18;2.60;;;2.40;;
12768;SDS011;6448;48.916;8.990;2023-09-07T04:35:23;2.60;;;2.40;;
12768;SDS011;6448;48.916;8.990;2023-09-07T04:36:29;2.72;;;2.53;;
12768;SDS011;6448;48.916;8.990;2023-09-07T04:37:30;2.60;;;2.40;;
12768;SDS011;6448;48.916;8.990;2023-09-07T04:38:32;2.70;;;2.50;;
12768;SDS011;6448;48.916;8.990;2023-09-07T04:39:32;2.70;;;2.50;;
12768;SDS011;6448;48.916;8.990;2023-09-07T04:40:34;2.70;;;2.50;;
12768;SDS011;6448;48.916;8.990;2023-09-07T04:41:35;2.80;;;2.60;;
12768;SDS011;6448;48.916;8.990;2023-09-07T04:42:37;2.63;;;2.42;;
12768;SDS011;6448;48.916;8.990;2023-09-07T04:43:40;2.50;;;2.30;;
12768;SDS011;6448;48.916;8.990;2023-09-07T04:44:44;2.67;;;2.47;;
12768;SDS011;6448;48.916;8.990;2023-09-07T04:45:46;2.42;;;2.30;;
12768;SDS011;6448;48.916;8.990;2023-09-07T04:46:48;2.45;;;2.25;;
12768;SDS011;6448;48.916;8.990;2023-09-07T04:47:50;2.60;;;2.40;;
12768;SDS011;6448;48.916;8.990;2023-09-07T04:48:51;2.60;;;2.40;;
12768;SDS011;6448;48.916;8.990;2023-09-07T04:49:52;2.40;;;2.20;;
12768;SDS011;6448;48.916;8.990;2023-09-07T04:50:59;2.70;;;2.50;;
12768;SDS011;6448;48.916;8.990;2023-09-07T04:51:59;2.60;;;2.40;;
12768;SDS011;6448;48.916;8.990;2023-09-07T04:53:01;2.40;;;2.20;;
12768;SDS011;6448;48.916;8.990;2023-09-07T04:54:02;2.25;;;2.13;;
12768;SDS011;6448;48.916;8.990;2023-09-07T04:55:05;2.40;;;2.20;;
12768;SDS011;6448;48.916;8.990;2023-09-07T04:56:08;2.35;;;2.22;;
12768;SDS011;6448;48.916;8.990;2023-09-07T04:57:13;2.60;;;2.40;;
12768;SDS011;6448;48.916;8.990;2023-09-07T04:58:17;2.60;;;2.40;;
12768;SDS011;6448;48.916;8.990;2023-09-07T04:59:20;2.75;;;2.55;;
12768;SDS011;6448;48.916;8.990;2023-09-07T05:00:21;2.60;;;2.40;;
12768;SDS011;6448;48.916;8.990;2023-09-07T05:01:22;2.63;;;2.42;;
12768;SDS011;6448;48.916;8.990;2023-09-07T05:02:25;2.80;;;2.60;;
12768;SDS011;6448;48.916;8.990;2023-09-07T05:03:27;2.70;;;2.50;;
12768;SDS011;6448;48.916;8.990;2023-09-07T05:04:28;2.95;;;2.60;;
12768;SDS011;6448;48.916;8.990;2023-09-07T05:05:30;2.70;;;2.50;;
12768;SDS011;6448;48.916;8.990;2023-09-07T05:06:31;2.83;;;2.63;;
12768;SDS011;6448;48.916;8.990;2023-09-07T05:07:38;2.72;;;2.53;;
12768;SDS011;6448;48.916;8.990;2023-09-07T05:08:40;2.88;;;2.67;;
12768;SDS011;6448;48.916;8.990;2023-09-07T05:09:42;3.00;;;2.70;;
12768;SDS011;6448;48.916;8.990;2023-09-07T05:10:43;3.00;;;2.80;;
12768;SDS011;6448;48.916;8.990;2023-09-07T05:11:45;2.80;;;2.60;;
12768;SDS011;6448;48.916;8.990;2023-09-07T05:12:45;2.93;;;2.70;;
12768;SDS011;6448;48.916;8.990;2023-09-07T05:13:48;2.80;;;2.60;;
12768;SDS011;6448;48.916;8.990;2023-09-07T05:14:50;2.80;;;2.60;;
12768;SDS011;6448;48.916;8.990;2023-09-07T05:15:52;2.92;;;2.72;;
12768;SDS011;6448;48.916;8.990;2023-09-07T05:16:54;3.15;;;2.85;;
12768;SDS011;6448;48.916;8.990;2023-09-07T05:17:57;2.83;;;2.63;;
12768;SDS011;6448;48.916;8.990;2023-09-07T05:18:58;2.80;;;2.60;;
12768;SDS011;6448;48.916;8.990;2023-09-07T05:20:00;2.80;;;2.60;;
12768;SDS011;6448;48.916;8.990;2023-09-07T05:21:10;2.97;;;2.70;;
12768;SDS011;6448;48.916;8.990;2023-09-07T05:22:11;2.75;;;2.55;;
12768;SDS011;6448;48.916;8.990;2023-09-07T05:23:13;3.10;;;2.80;;
12768;SDS011;6448;48.916;8.990;2023-09-07T05:24:16;2.80;;;2.60;;
12768;SDS011;6448;48.916;8.990;2023-09-07T05:25:18;2.77;;;2.53;;
12768;SDS011;6448;48.916;8.990;2023-09-07T05:26:20;2.70;;;2.50;;
12768;SDS011;6448;48.916;8.990;2023-09-07T05:27:22;2.70;;;2.50;;
12768;SDS011;6448;48.916;8.990;2023-09-07T05:28:24;2.90;;;2.70;;
12768;SDS011;6448;48.916;8.990;2023-09-07T05:29:28;2.70;;;2.50;;
12768;SDS011;6448;48.916;8.990;2023-09-07T05:30:31;2.67;;;2.47;;
12768;SDS011;6448;48.916;8.990;2023-09-07T05:31:32;2.80;;;2.60;;
12768;SDS011;6448;48.916;8.990;2023-09-07T05:32:33;2.85;;;2.65;;
12768;SDS011;6448;48.916;8.990;2023-09-07T05:33:34;2.60;;;2.40;;
12768;SDS011;6448;48.916;8.990;2023-09-07T05:34:36;3.08;;;2.88;;
12768;SDS011;6448;48.916;8.990;2023-09-07T05:35:37;3.20;;;2.90;;
12768;SDS011;6448;48.916;8.990;2023-09-07T05:36:39;3.45;;;2.80;;
12768;SDS011;6448;48.916;8.990;2023-09-07T05:37:40;3.03;;;2.80;;
12768;SDS011;6448;48.916;8.990;2023-09-07T05:38:42;3.22;;;2.92;;
12768;SDS011;6448;48.916;8.990;2023-09-07T05:39:42;3.15;;;2.88;;
12768;SDS011;6448;48.916;8.990;2023-09-07T05:40:44;2.97;;;2.78;;
12768;SDS011;6448;48.916;8.990;2023-09-07T05:41:46;3.03;;;2.83;;
12768;SDS011;6448;48.916;8.990;2023-09-07T05:42:50;3.00;;;2.80;;
12768;SDS011;6448;48.916;8.990;2023-09-07T05:43:51;3.35;;;2.92;;
12768;SDS011;6448;48.916;8.990;2023-09-07T05:44:53;3.10;;;2.90;;
12768;SDS011;6448;48.916;8.990;2023-09-07T05:45:55;2.90;;;2.70;;
12768;SDS011;6448;48.916;8.990;2023-09-07T05:46:57;3.22;;;2.92;;
12768;SDS011;6448;48.916;8.990;2023-09-07T05:47:59;3.03;;;2.83;;
12768;SDS011;6448;48.916;8.990;2023-09-07T05:49:01;3.30;;;3.00;;
12768;SDS011;6448;48.916;8.990;2023-09-07T05:50:02;3.25;;;3.00;;
12768;SDS011;6448;48.916;8.990;2023-09-07T05:51:04;3.13;;;2.92;;
12768;SDS011;6448;48.916;8.990;2023-09-07T05:52:05;3.47;;;3.20;;
12768;SDS011;6448;48.916;8.990;2023-09-07T05:53:07;3.25;;;3.05;;
12768;SDS011;6448;48.916;8.990;2023-09-07T05:54:08;3.17;;;2.90;;
12768;SDS011;6448;48.916;8.990;2023-09-07T05:55:10;3.13;;;2.92;;
12768;SDS011;6448;48.916;8.990;2023-09-07T05:56:11;3.10;;;2.90;;
12768;SDS011;6448;48.916;8.990;2023-09-07T05:57:12;3.07;;;2.87;;
12768;SDS011;6448;48.916;8.990;2023-09-07T05:58:13;3.40;;;3.10;;
12768;SDS011;6448;48.916;8.990;2023-09-07T05:59:17;3.07;;;2.87;;
12768;SDS011;6448;48.916;8.990;2023-09-07T06:00:19;3.13;;;2.92;;
12768;SDS011;6448;48.916;8.990;2023-09-07T06:01:23;3.15;;;2.95;;
12768;SDS011;6448;48.916;8.990;2023-09-07T06:02:25;3.28;;;3.08;;
12768;SDS011;6448;48.916;8.990;2023-09-07T06:03:26;3.80;;;3.00;;
12768;SDS011;6448;48.916;8.990;2023-09-07T06:04:28;3.00;;;2.80;;
12768;SDS011;6448;48.916;8.990;2023-09-07T06:05:30;3.15;;;2.95;;
12768;SDS011;6448;48.916;8.990;2023-09-07T06:06:32;3.03;;;2.83;;
12768;SDS011;6448;48.916;8.990;2023-09-07T06:07:34;3.35;;;3.10;;
12768;SDS011;6448;48.916;8.990;2023-09-07T06:08:36;2.85;;;2.65;;
12768;SDS011;6448;48.916;8.990;2023-09-07T06:09:36;3.00;;;2.80;;
12768;SDS011;6448;48.916;8.990;2023-09-07T06:10:38;3.13;;;2.83;;
12768;SDS011;6448;48.916;8.990;2023-09-07T06:11:40;3.33;;;3.03;;
12768;SDS011;6448;48.916;8.990;2023-09-07T06:12:42;3.42;;;3.13;;
12768;SDS011;6448;48.916;8.990;2023-09-07T06:13:43;2.90;;;2.70;;
12768;SDS011;6448;48.916;8.990;2023-09-07T06:14:46;3.20;;;2.90;;
12768;SDS011;6448;48.916;8.990;2023-09-07T06:15:47;3.00;;;2.80;;
12768;SDS011;6448;48.916;8.990;2023-09-07T06:16:50;3.50;;;3.20;;
12768;SDS011;6448;48.916;8.990;2023-09-07T06:17:51;3.22;;;3.03;;
12768;SDS011;6448;48.916;8.990;2023-09-07T06:18:52;3.00;;;2.80;;
12768;SDS011;6448;48.916;8.990;2023-09-07T06:19:54;3.20;;;2.97;;